Fox, Oregon
Current Conditions -  °F | °C
As of 5:35 PM on Thursday 27 Nov 2014 (Local Time) from KGCD Reporting Station
Overcast Overcast  
Wind Chill: 52°   Ceiling: 5000
Heat Index: 52°   Visibility: 10mi
Dew Point: 38°   Wind: 13mph
Humidity: 60%   Direction: 200°SSW
Pressure: 30.01"   Gusts: 26mph
Location:  44.65°N, 119.14°W
Report Text: KGCD 280135Z AUTO 20011G23KT 10SM SCT046 OVC050 11/04 A3001 RMK AO2 T01110036
Loading
Personal Weather Stations






























Interactive Weather Map New forecast layout! Learn more

10-Day Weather Forecast

Advertisements
Track Severe Weather on mobile